Airfield :
LOGIN :

Register | Disclaimer

   EN    FR    IT 

 










Legend :    VFR   Marginal VFR   IFR   Intensive IFR   Very Intensive IFR
Visi :
Ceiling :
>= 8 km
>= 3000ft
5 to 8 km
1000 to 3000 ft
1500m to 5 km
500 to 1000 ft
800 to 1500m
200 to 500 ft
< 800m
< 200 ft
Symbols :   Thunderstorms  Fog  Heavy snow  Heavy precipitations  Wind > 20 kt
SIGMETs :     Misc.  Thunderstorms  Icing  Turbulence  Mountain Waves  Volcanic Ashes






- Airport Elevation : 70 ft
- IATA code : LEI


LEAM - Almeria

CURRENT METAR :
  • 261430Z 26003KT CAVOK 16/11 Q1009

EXPIRED METARs :
  • 261400Z VRB02KT CAVOK 17/12 Q1009
  • 261330Z 24007KT CAVOK 17/13 Q1009
  • 261300Z 25009KT CAVOK 17/13 Q1009
  • 261230Z 22009KT 190V250 CAVOK 17/14 Q1009
  • 261200Z 14006KT 120V180 CAVOK 19/15 Q1009

TAF TAF LEAM
Valid from the 26 at 15:00 until the 27 at 15:00 UTC


261400Z 2615/2715 22008KT 9999 FEW015 SCT030 TX20/2713Z TN11/2706Z
TEMPO 2621/2706 4000 SHRA SCT020TCU FEW030CB
PROB40
TEMPO 2621/2706 22015G25KT 2000 TSRA SCT020CB



MET'MAP, your aeronautical weather chart ! - Copyright ORBIFLY December 2007 - Disclaimer

ORBIFLY MET'MAP TEAM :

Programming & Development : Alexandra Zaïnal
Concept & original design : Baudouin d'Aumeries
Assistance for programming : Marc-Olivier Méhu
Technical & hardware support : Manuel Goepfert

Contact : metmap@orbifly.com




SOURCES & CREDITS :

   NOAA